sensor_id;sensor_type;location;lat;lon;timestamp;P1;durP1;ratioP1;P2;durP2;ratioP2
64795;SDS011;51229;51.980;6.722;2022-08-04T00:00:09;5.22;;;3.42;;
64795;SDS011;51229;51.980;6.722;2022-08-04T00:02:51;7.57;;;3.45;;
64795;SDS011;51229;51.980;6.722;2022-08-04T00:08:49;5.72;;;3.58;;
64795;SDS011;51229;51.980;6.722;2022-08-04T00:11:22;7.22;;;3.50;;
64795;SDS011;51229;51.980;6.722;2022-08-04T00:13:53;7.60;;;4.05;;
64795;SDS011;51229;51.980;6.722;2022-08-04T00:16:24;8.57;;;3.63;;
64795;SDS011;51229;51.980;6.722;2022-08-04T00:18:55;8.90;;;3.63;;
64795;SDS011;51229;51.980;6.722;2022-08-04T00:21:24;6.75;;;3.42;;
64795;SDS011;51229;51.980;6.722;2022-08-04T00:23:50;7.72;;;3.63;;
64795;SDS011;51229;51.980;6.722;2022-08-04T00:26:18;5.97;;;3.30;;
64795;SDS011;51229;51.980;6.722;2022-08-04T00:28:44;8.18;;;3.70;;
64795;SDS011;51229;51.980;6.722;2022-08-04T00:31:12;10.13;;;3.40;;
64795;SDS011;51229;51.980;6.722;2022-08-04T00:33:41;8.77;;;3.65;;
64795;SDS011;51229;51.980;6.722;2022-08-04T00:36:10;6.88;;;3.42;;
64795;SDS011;51229;51.980;6.722;2022-08-04T00:38:36;7.47;;;3.35;;
64795;SDS011;51229;51.980;6.722;2022-08-04T00:44:07;6.05;;;3.30;;
64795;SDS011;51229;51.980;6.722;2022-08-04T00:57:45;6.28;;;3.17;;
64795;SDS011;51229;51.980;6.722;2022-08-04T01:00:43;11.13;;;3.42;;
64795;SDS011;51229;51.980;6.722;2022-08-04T01:11:23;6.68;;;3.08;;
64795;SDS011;51229;51.980;6.722;2022-08-04T01:13:55;6.15;;;3.50;;
64795;SDS011;51229;51.980;6.722;2022-08-04T01:16:38;6.22;;;3.28;;
64795;SDS011;51229;51.980;6.722;2022-08-04T01:19:23;6.32;;;3.17;;
64795;SDS011;51229;51.980;6.722;2022-08-04T01:24:58;7.20;;;3.50;;
64795;SDS011;51229;51.980;6.722;2022-08-04T01:27:26;7.47;;;3.25;;
64795;SDS011;51229;51.980;6.722;2022-08-04T01:30:12;7.72;;;3.35;;
64795;SDS011;51229;51.980;6.722;2022-08-04T01:32:47;8.95;;;3.20;;
64795;SDS011;51229;51.980;6.722;2022-08-04T01:35:37;7.20;;;3.10;;
64795;SDS011;51229;51.980;6.722;2022-08-04T01:40:53;7.97;;;3.22;;
64795;SDS011;51229;51.980;6.722;2022-08-04T01:45:53;10.05;;;3.35;;
64795;SDS011;51229;51.980;6.722;2022-08-04T01:48:22;7.93;;;2.90;;
64795;SDS011;51229;51.980;6.722;2022-08-04T01:50:50;7.80;;;2.90;;
64795;SDS011;51229;51.980;6.722;2022-08-04T01:53:18;8.20;;;2.60;;
64795;SDS011;51229;51.980;6.722;2022-08-04T01:55:48;6.78;;;2.50;;
64795;SDS011;51229;51.980;6.722;2022-08-04T01:58:17;8.38;;;2.72;;
64795;SDS011;51229;51.980;6.722;2022-08-04T02:00:45;8.48;;;3.17;;
64795;SDS011;51229;51.980;6.722;2022-08-04T02:03:26;8.32;;;2.63;;
64795;SDS011;51229;51.980;6.722;2022-08-04T02:05:54;7.65;;;2.65;;
64795;SDS011;51229;51.980;6.722;2022-08-04T02:08:50;9.38;;;2.72;;
64795;SDS011;51229;51.980;6.722;2022-08-04T02:11:48;7.63;;;2.63;;
64795;SDS011;51229;51.980;6.722;2022-08-04T02:14:29;7.15;;;2.40;;
64795;SDS011;51229;51.980;6.722;2022-08-04T02:17:11;6.80;;;2.45;;
64795;SDS011;51229;51.980;6.722;2022-08-04T02:20:00;8.95;;;2.53;;
64795;SDS011;51229;51.980;6.722;2022-08-04T02:22:46;8.13;;;2.83;;
64795;SDS011;51229;51.980;6.722;2022-08-04T02:25:21;8.27;;;2.67;;
64795;SDS011;51229;51.980;6.722;2022-08-04T02:27:54;9.20;;;2.40;;
64795;SDS011;51229;51.980;6.722;2022-08-04T02:30:25;7.10;;;2.85;;
64795;SDS011;51229;51.980;6.722;2022-08-04T02:32:56;9.70;;;2.60;;
64795;SDS011;51229;51.980;6.722;2022-08-04T02:35:26;10.93;;;2.47;;
64795;SDS011;51229;51.980;6.722;2022-08-04T02:38:03;7.82;;;2.42;;
64795;SDS011;51229;51.980;6.722;2022-08-04T02:40:42;9.50;;;2.47;;
64795;SDS011;51229;51.980;6.722;2022-08-04T02:43:09;6.55;;;2.28;;
64795;SDS011;51229;51.980;6.722;2022-08-04T02:45:35;8.60;;;2.60;;
64795;SDS011;51229;51.980;6.722;2022-08-04T02:48:04;8.05;;;2.60;;
64795;SDS011;51229;51.980;6.722;2022-08-04T02:50:33;7.13;;;2.38;;
64795;SDS011;51229;51.980;6.722;2022-08-04T02:52:59;7.95;;;2.67;;
64795;SDS011;51229;51.980;6.722;2022-08-04T02:55:28;9.18;;;2.50;;
64795;SDS011;51229;51.980;6.722;2022-08-04T02:57:56;7.07;;;2.30;;
64795;SDS011;51229;51.980;6.722;2022-08-04T03:00:25;8.00;;;2.58;;
64795;SDS011;51229;51.980;6.722;2022-08-04T03:03:07;9.82;;;3.08;;
64795;SDS011;51229;51.980;6.722;2022-08-04T03:14:19;8.18;;;2.55;;
64795;SDS011;51229;51.980;6.722;2022-08-04T03:28:22;9.38;;;2.65;;
64795;SDS011;51229;51.980;6.722;2022-08-04T03:36:59;13.23;;;3.30;;
64795;SDS011;51229;51.980;6.722;2022-08-04T03:56:50;9.95;;;3.28;;
64795;SDS011;51229;51.980;6.722;2022-08-04T03:59:44;10.30;;;2.75;;
64795;SDS011;51229;51.980;6.722;2022-08-04T04:13:17;6.47;;;2.25;;
64795;SDS011;51229;51.980;6.722;2022-08-04T04:19:08;10.85;;;3.10;;
64795;SDS011;51229;51.980;6.722;2022-08-04T04:24:29;7.90;;;2.60;;
64795;SDS011;51229;51.980;6.722;2022-08-04T04:30:01;8.63;;;2.70;;
64795;SDS011;51229;51.980;6.722;2022-08-04T04:46:45;8.85;;;2.97;;
64795;SDS011;51229;51.980;6.722;2022-08-04T04:52:06;10.45;;;3.25;;
64795;SDS011;51229;51.980;6.722;2022-08-04T04:54:42;9.05;;;3.28;;
64795;SDS011;51229;51.980;6.722;2022-08-04T04:57:17;11.27;;;2.75;;
64795;SDS011;51229;51.980;6.722;2022-08-04T05:00:18;9.02;;;3.00;;
64795;SDS011;51229;51.980;6.722;2022-08-04T05:02:49;10.73;;;3.00;;
64795;SDS011;51229;51.980;6.722;2022-08-04T05:05:46;9.60;;;2.95;;
64795;SDS011;51229;51.980;6.722;2022-08-04T05:11:14;11.00;;;3.08;;
64795;SDS011;51229;51.980;6.722;2022-08-04T05:13:53;8.32;;;2.90;;
64795;SDS011;51229;51.980;6.722;2022-08-04T05:16:36;9.30;;;2.90;;
64795;SDS011;51229;51.980;6.722;2022-08-04T05:19:12;9.07;;;3.47;;
64795;SDS011;51229;51.980;6.722;2022-08-04T05:21:50;11.93;;;3.10;;
64795;SDS011;51229;51.980;6.722;2022-08-04T05:24:23;11.45;;;3.53;;
64795;SDS011;51229;51.980;6.722;2022-08-04T05:26:58;13.02;;;3.58;;
64795;SDS011;51229;51.980;6.722;2022-08-04T05:29:32;10.20;;;3.20;;
64795;SDS011;51229;51.980;6.722;2022-08-04T05:32:01;9.85;;;2.80;;
64795;SDS011;51229;51.980;6.722;2022-08-04T05:34:34;9.20;;;3.22;;
64795;SDS011;51229;51.980;6.722;2022-08-04T05:37:09;8.70;;;2.78;;
64795;SDS011;51229;51.980;6.722;2022-08-04T05:39:56;9.48;;;3.40;;
64795;SDS011;51229;51.980;6.722;2022-08-04T05:42:25;12.27;;;2.85;;
64795;SDS011;51229;51.980;6.722;2022-08-04T05:44:52;10.50;;;3.20;;
64795;SDS011;51229;51.980;6.722;2022-08-04T05:47:19;13.68;;;3.70;;
64795;SDS011;51229;51.980;6.722;2022-08-04T05:49:46;8.50;;;3.03;;
64795;SDS011;51229;51.980;6.722;2022-08-04T05:52:12;13.50;;;2.80;;
64795;SDS011;51229;51.980;6.722;2022-08-04T05:54:39;10.15;;;3.08;;
64795;SDS011;51229;51.980;6.722;2022-08-04T05:57:06;8.95;;;3.35;;
64795;SDS011;51229;51.980;6.722;2022-08-04T05:59:35;9.35;;;2.95;;
64795;SDS011;51229;51.980;6.722;2022-08-04T06:02:03;8.75;;;3.08;;
64795;SDS011;51229;51.980;6.722;2022-08-04T06:04:39;12.25;;;3.13;;
64795;SDS011;51229;51.980;6.722;2022-08-04T06:07:07;11.25;;;3.42;;
64795;SDS011;51229;51.980;6.722;2022-08-04T06:09:35;10.55;;;3.33;;
64795;SDS011;51229;51.980;6.722;2022-08-04T06:12:03;9.00;;;2.85;;
64795;SDS011;51229;51.980;6.722;2022-08-04T06:14:52;12.48;;;3.28;;
64795;SDS011;51229;51.980;6.722;2022-08-04T06:17:21;12.25;;;3.33;;
64795;SDS011;51229;51.980;6.722;2022-08-04T06:19:55;13.65;;;3.35;;
64795;SDS011;51229;51.980;6.722;2022-08-04T06:22:22;14.18;;;3.45;;
64795;SDS011;51229;51.980;6.722;2022-08-04T06:24:49;11.35;;;3.03;;
64795;SDS011;51229;51.980;6.722;2022-08-04T06:27:17;9.68;;;3.25;;
64795;SDS011;51229;51.980;6.722;2022-08-04T06:29:45;10.10;;;3.30;;
64795;SDS011;51229;51.980;6.722;2022-08-04T06:32:13;14.30;;;3.40;;
64795;SDS011;51229;51.980;6.722;2022-08-04T06:35:01;12.90;;;3.55;;
64795;SDS011;51229;51.980;6.722;2022-08-04T06:37:29;10.90;;;3.40;;
64795;SDS011;51229;51.980;6.722;2022-08-04T06:39:56;12.48;;;3.35;;
64795;SDS011;51229;51.980;6.722;2022-08-04T06:42:23;8.77;;;3.00;;
64795;SDS011;51229;51.980;6.722;2022-08-04T06:44:51;11.05;;;3.60;;
64795;SDS011;51229;51.980;6.722;2022-08-04T06:47:20;10.68;;;3.95;;
64795;SDS011;51229;51.980;6.722;2022-08-04T06:49:47;11.07;;;3.25;;
64795;SDS011;51229;51.980;6.722;2022-08-04T06:52:15;9.27;;;3.47;;
64795;SDS011;51229;51.980;6.722;2022-08-04T06:54:45;10.55;;;3.47;;
64795;SDS011;51229;51.980;6.722;2022-08-04T06:57:12;8.80;;;3.47;;
64795;SDS011;51229;51.980;6.722;2022-08-04T06:59:41;10.75;;;3.78;;
64795;SDS011;51229;51.980;6.722;2022-08-04T07:02:11;11.40;;;4.07;;
64795;SDS011;51229;51.980;6.722;2022-08-04T07:04:40;9.02;;;3.20;;
64795;SDS011;51229;51.980;6.722;2022-08-04T07:07:07;11.55;;;4.20;;
64795;SDS011;51229;51.980;6.722;2022-08-04T07:09:34;10.68;;;3.60;;
64795;SDS011;51229;51.980;6.722;2022-08-04T07:11:59;9.00;;;3.28;;
64795;SDS011;51229;51.980;6.722;2022-08-04T07:14:26;10.93;;;3.30;;
64795;SDS011;51229;51.980;6.722;2022-08-04T07:16:52;8.77;;;3.33;;
64795;SDS011;51229;51.980;6.722;2022-08-04T07:19:19;11.38;;;3.65;;
64795;SDS011;51229;51.980;6.722;2022-08-04T07:21:44;10.38;;;3.40;;
64795;SDS011;51229;51.980;6.722;2022-08-04T07:24:10;9.45;;;3.17;;
64795;SDS011;51229;51.980;6.722;2022-08-04T07:26:36;8.27;;;3.60;;
64795;SDS011;51229;51.980;6.722;2022-08-04T07:29:02;11.32;;;3.75;;
64795;SDS011;51229;51.980;6.722;2022-08-04T07:31:28;8.30;;;3.58;;
64795;SDS011;51229;51.980;6.722;2022-08-04T07:33:55;8.32;;;3.33;;
64795;SDS011;51229;51.980;6.722;2022-08-04T07:36:21;10.23;;;3.58;;
64795;SDS011;51229;51.980;6.722;2022-08-04T07:38:47;10.73;;;3.97;;
64795;SDS011;51229;51.980;6.722;2022-08-04T07:41:13;10.60;;;3.58;;
64795;SDS011;51229;51.980;6.722;2022-08-04T07:43:45;10.52;;;3.97;;
64795;SDS011;51229;51.980;6.722;2022-08-04T07:46:11;11.15;;;3.88;;
64795;SDS011;51229;51.980;6.722;2022-08-04T07:48:37;12.85;;;4.65;;
64795;SDS011;51229;51.980;6.722;2022-08-04T07:51:03;12.20;;;4.32;;
64795;SDS011;51229;51.980;6.722;2022-08-04T07:53:29;16.13;;;4.95;;
64795;SDS011;51229;51.980;6.722;2022-08-04T07:55:55;14.07;;;4.90;;
64795;SDS011;51229;51.980;6.722;2022-08-04T07:58:22;10.73;;;4.43;;
64795;SDS011;51229;51.980;6.722;2022-08-04T08:00:47;10.95;;;4.75;;
64795;SDS011;51229;51.980;6.722;2022-08-04T08:03:14;11.15;;;4.70;;
64795;SDS011;51229;51.980;6.722;2022-08-04T08:05:40;13.68;;;5.05;;
64795;SDS011;51229;51.980;6.722;2022-08-04T08:08:05;12.30;;;4.40;;
64795;SDS011;51229;51.980;6.722;2022-08-04T08:10:31;11.88;;;5.28;;
64795;SDS011;51229;51.980;6.722;2022-08-04T08:12:57;11.20;;;4.57;;
64795;SDS011;51229;51.980;6.722;2022-08-04T08:15:23;9.48;;;4.07;;
64795;SDS011;51229;51.980;6.722;2022-08-04T08:17:49;11.40;;;4.35;;
64795;SDS011;51229;51.980;6.722;2022-08-04T08:20:15;9.75;;;3.83;;
64795;SDS011;51229;51.980;6.722;2022-08-04T08:22:41;12.25;;;4.32;;
64795;SDS011;51229;51.980;6.722;2022-08-04T08:25:07;11.48;;;3.90;;
64795;SDS011;51229;51.980;6.722;2022-08-04T08:27:33;7.07;;;3.80;;
64795;SDS011;51229;51.980;6.722;2022-08-04T08:30:00;8.80;;;4.10;;
64795;SDS011;51229;51.980;6.722;2022-08-04T08:32:26;9.38;;;3.65;;
64795;SDS011;51229;51.980;6.722;2022-08-04T08:34:52;8.50;;;3.88;;
64795;SDS011;51229;51.980;6.722;2022-08-04T08:51:19;8.23;;;3.60;;
64795;SDS011;51229;51.980;6.722;2022-08-04T09:10:35;8.02;;;3.97;;
64795;SDS011;51229;51.980;6.722;2022-08-04T09:13:56;10.43;;;4.35;;
64795;SDS011;51229;51.980;6.722;2022-08-04T09:16:46;7.68;;;3.70;;
64795;SDS011;51229;51.980;6.722;2022-08-04T09:19:29;9.93;;;4.15;;
64795;SDS011;51229;51.980;6.722;2022-08-04T09:27:17;10.93;;;4.35;;
64795;SDS011;51229;51.980;6.722;2022-08-04T09:35:12;8.85;;;3.80;;
64795;SDS011;51229;51.980;6.722;2022-08-04T09:43:16;7.10;;;3.65;;
64795;SDS011;51229;51.980;6.722;2022-08-04T09:46:14;7.30;;;3.40;;
64795;SDS011;51229;51.980;6.722;2022-08-04T09:48:54;8.20;;;3.42;;
64795;SDS011;51229;51.980;6.722;2022-08-04T09:51:38;6.13;;;3.65;;
64795;SDS011;51229;51.980;6.722;2022-08-04T09:54:26;8.25;;;3.65;;
64795;SDS011;51229;51.980;6.722;2022-08-04T10:00:06;9.75;;;3.67;;
64795;SDS011;51229;51.980;6.722;2022-08-04T10:02:41;12.23;;;4.10;;
64795;SDS011;51229;51.980;6.722;2022-08-04T10:05:12;8.65;;;4.07;;
64795;SDS011;51229;51.980;6.722;2022-08-04T10:07:45;7.10;;;3.45;;
64795;SDS011;51229;51.980;6.722;2022-08-04T10:27:17;8.40;;;3.67;;
64795;SDS011;51229;51.980;6.722;2022-08-04T10:29:45;7.32;;;3.40;;
64795;SDS011;51229;51.980;6.722;2022-08-04T10:32:16;8.32;;;3.00;;
64795;SDS011;51229;51.980;6.722;2022-08-04T10:37:40;8.55;;;3.35;;
64795;SDS011;51229;51.980;6.722;2022-08-04T10:40:22;8.25;;;3.40;;
64795;SDS011;51229;51.980;6.722;2022-08-04T10:46:16;7.55;;;3.30;;
64795;SDS011;51229;51.980;6.722;2022-08-04T10:54:10;7.47;;;3.35;;
64795;SDS011;51229;51.980;6.722;2022-08-04T10:56:40;8.45;;;3.28;;
64795;SDS011;51229;51.980;6.722;2022-08-04T11:01:46;8.32;;;3.13;;
64795;SDS011;51229;51.980;6.722;2022-08-04T11:04:16;10.05;;;3.30;;
64795;SDS011;51229;51.980;6.722;2022-08-04T11:06:49;6.82;;;3.03;;
64795;SDS011;51229;51.980;6.722;2022-08-04T11:09:17;7.35;;;2.63;;
64795;SDS011;51229;51.980;6.722;2022-08-04T11:11:48;6.20;;;2.70;;
64795;SDS011;51229;51.980;6.722;2022-08-04T11:14:22;7.38;;;2.55;;
64795;SDS011;51229;51.980;6.722;2022-08-04T11:19:48;6.97;;;3.00;;
64795;SDS011;51229;51.980;6.722;2022-08-04T11:22:24;6.55;;;2.78;;
64795;SDS011;51229;51.980;6.722;2022-08-04T11:25:03;8.95;;;3.40;;
64795;SDS011;51229;51.980;6.722;2022-08-04T11:30:09;5.88;;;2.90;;
64795;SDS011;51229;51.980;6.722;2022-08-04T11:32:53;8.60;;;3.05;;
64795;SDS011;51229;51.980;6.722;2022-08-04T11:36:14;9.43;;;3.20;;
64795;SDS011;51229;51.980;6.722;2022-08-04T11:38:20;6.47;;;2.75;;
64795;SDS011;51229;51.980;6.722;2022-08-04T11:40:53;6.38;;;3.10;;
64795;SDS011;51229;51.980;6.722;2022-08-04T11:43:28;10.00;;;3.70;;
64795;SDS011;51229;51.980;6.722;2022-08-04T11:46:02;11.32;;;3.65;;
64795;SDS011;51229;51.980;6.722;2022-08-04T11:48:40;6.57;;;3.33;;
64795;SDS011;51229;51.980;6.722;2022-08-04T11:51:11;7.05;;;3.33;;
64795;SDS011;51229;51.980;6.722;2022-08-04T11:53:37;5.50;;;3.22;;
64795;SDS011;51229;51.980;6.722;2022-08-04T11:56:04;10.23;;;3.42;;
64795;SDS011;51229;51.980;6.722;2022-08-04T11:58:34;8.93;;;3.65;;
64795;SDS011;51229;51.980;6.722;2022-08-04T12:12:34;9.75;;;3.85;;
64795;SDS011;51229;51.980;6.722;2022-08-04T12:17:56;10.02;;;3.92;;
64795;SDS011;51229;51.980;6.722;2022-08-04T12:20:46;6.80;;;4.30;;
64795;SDS011;51229;51.980;6.722;2022-08-04T12:23:20;9.00;;;3.90;;
64795;SDS011;51229;51.980;6.722;2022-08-04T12:25:49;9.27;;;4.13;;
64795;SDS011;51229;51.980;6.722;2022-08-04T12:28:27;8.38;;;4.38;;
64795;SDS011;51229;51.980;6.722;2022-08-04T12:31:00;8.45;;;4.25;;
64795;SDS011;51229;51.980;6.722;2022-08-04T12:33:39;6.28;;;3.63;;
64795;SDS011;51229;51.980;6.722;2022-08-04T12:39:02;7.03;;;3.70;;
64795;SDS011;51229;51.980;6.722;2022-08-04T12:41:57;6.97;;;3.70;;
64795;SDS011;51229;51.980;6.722;2022-08-04T12:44:30;8.60;;;4.05;;
64795;SDS011;51229;51.980;6.722;2022-08-04T12:47:02;7.95;;;3.67;;
64795;SDS011;51229;51.980;6.722;2022-08-04T12:49:30;7.05;;;4.00;;
64795;SDS011;51229;51.980;6.722;2022-08-04T12:51:58;8.90;;;4.00;;
64795;SDS011;51229;51.980;6.722;2022-08-04T12:54:29;7.47;;;4.15;;
64795;SDS011;51229;51.980;6.722;2022-08-04T12:56:57;8.43;;;4.00;;
64795;SDS011;51229;51.980;6.722;2022-08-04T12:59:25;8.40;;;4.22;;
64795;SDS011;51229;51.980;6.722;2022-08-04T13:01:50;9.38;;;3.85;;
64795;SDS011;51229;51.980;6.722;2022-08-04T13:04:19;10.30;;;4.07;;
64795;SDS011;51229;51.980;6.722;2022-08-04T13:06:51;10.63;;;4.57;;
64795;SDS011;51229;51.980;6.722;2022-08-04T13:09:32;7.70;;;4.15;;
64795;SDS011;51229;51.980;6.722;2022-08-04T13:12:03;7.93;;;3.42;;
64795;SDS011;51229;51.980;6.722;2022-08-04T13:14:35;11.20;;;4.28;;
64795;SDS011;51229;51.980;6.722;2022-08-04T13:17:04;7.38;;;3.70;;
64795;SDS011;51229;51.980;6.722;2022-08-04T13:19:30;9.57;;;3.92;;
64795;SDS011;51229;51.980;6.722;2022-08-04T13:22:25;8.38;;;4.30;;
64795;SDS011;51229;51.980;6.722;2022-08-04T13:24:52;7.07;;;3.92;;
64795;SDS011;51229;51.980;6.722;2022-08-04T13:27:19;7.25;;;4.22;;
64795;SDS011;51229;51.980;6.722;2022-08-04T13:29:48;6.57;;;3.92;;
64795;SDS011;51229;51.980;6.722;2022-08-04T13:32:17;8.57;;;3.85;;
64795;SDS011;51229;51.980;6.722;2022-08-04T13:34:46;7.20;;;3.67;;
64795;SDS011;51229;51.980;6.722;2022-08-04T13:37:14;8.63;;;3.83;;
64795;SDS011;51229;51.980;6.722;2022-08-04T13:39:45;7.32;;;3.60;;
64795;SDS011;51229;51.980;6.722;2022-08-04T13:42:12;7.22;;;3.67;;
64795;SDS011;51229;51.980;6.722;2022-08-04T13:44:42;6.82;;;3.55;;
64795;SDS011;51229;51.980;6.722;2022-08-04T13:47:30;7.03;;;3.97;;
64795;SDS011;51229;51.980;6.722;2022-08-04T13:50:14;7.60;;;3.65;;
64795;SDS011;51229;51.980;6.722;2022-08-04T13:52:43;7.15;;;3.67;;
64795;SDS011;51229;51.980;6.722;2022-08-04T13:57:46;9.40;;;4.20;;
64795;SDS011;51229;51.980;6.722;2022-08-04T14:00:17;5.93;;;3.60;;
64795;SDS011;51229;51.980;6.722;2022-08-04T14:03:03;6.38;;;3.47;;
64795;SDS011;51229;51.980;6.722;2022-08-04T14:05:31;8.20;;;3.95;;
64795;SDS011;51229;51.980;6.722;2022-08-04T14:07:59;9.98;;;3.45;;
64795;SDS011;51229;51.980;6.722;2022-08-04T14:10:32;7.57;;;3.30;;
64795;SDS011;51229;51.980;6.722;2022-08-04T14:12:59;7.90;;;3.80;;
64795;SDS011;51229;51.980;6.722;2022-08-04T14:15:29;8.57;;;3.35;;
64795;SDS011;51229;51.980;6.722;2022-08-04T14:18:15;7.45;;;3.47;;
64795;SDS011;51229;51.980;6.722;2022-08-04T14:20:57;7.32;;;2.92;;
64795;SDS011;51229;51.980;6.722;2022-08-04T14:23:25;6.70;;;3.20;;
64795;SDS011;51229;51.980;6.722;2022-08-04T14:25:51;8.75;;;3.28;;
64795;SDS011;51229;51.980;6.722;2022-08-04T14:28:27;7.00;;;3.13;;
64795;SDS011;51229;51.980;6.722;2022-08-04T14:31:10;8.23;;;3.20;;
64795;SDS011;51229;51.980;6.722;2022-08-04T14:33:40;6.68;;;3.05;;
64795;SDS011;51229;51.980;6.722;2022-08-04T14:36:07;9.38;;;3.67;;
64795;SDS011;51229;51.980;6.722;2022-08-04T14:39:07;8.05;;;3.00;;
64795;SDS011;51229;51.980;6.722;2022-08-04T14:43:59;5.28;;;2.88;;
64795;SDS011;51229;51.980;6.722;2022-08-04T14:46:27;6.40;;;3.03;;
64795;SDS011;51229;51.980;6.722;2022-08-04T14:49:06;8.32;;;3.45;;
64795;SDS011;51229;51.980;6.722;2022-08-04T14:51:40;7.35;;;3.20;;
64795;SDS011;51229;51.980;6.722;2022-08-04T14:54:11;9.00;;;3.42;;
64795;SDS011;51229;51.980;6.722;2022-08-04T14:56:39;6.45;;;3.30;;
64795;SDS011;51229;51.980;6.722;2022-08-04T14:59:06;4.85;;;3.05;;
64795;SDS011;51229;51.980;6.722;2022-08-04T15:01:35;7.90;;;3.60;;
64795;SDS011;51229;51.980;6.722;2022-08-04T15:04:03;7.15;;;3.45;;
64795;SDS011;51229;51.980;6.722;2022-08-04T15:06:30;6.93;;;3.38;;
64795;SDS011;51229;51.980;6.722;2022-08-04T15:08:57;7.47;;;3.50;;
64795;SDS011;51229;51.980;6.722;2022-08-04T15:11:26;8.38;;;3.13;;
64795;SDS011;51229;51.980;6.722;2022-08-04T15:13:55;10.10;;;3.50;;
64795;SDS011;51229;51.980;6.722;2022-08-04T15:16:22;5.93;;;3.20;;
64795;SDS011;51229;51.980;6.722;2022-08-04T15:18:50;7.57;;;3.38;;
64795;SDS011;51229;51.980;6.722;2022-08-04T15:21:17;6.88;;;3.28;;
64795;SDS011;51229;51.980;6.722;2022-08-04T15:23:43;6.63;;;3.25;;
64795;SDS011;51229;51.980;6.722;2022-08-04T15:26:14;7.45;;;3.42;;
64795;SDS011;51229;51.980;6.722;2022-08-04T15:28:49;6.30;;;3.10;;
64795;SDS011;51229;51.980;6.722;2022-08-04T15:31:19;7.00;;;2.80;;
64795;SDS011;51229;51.980;6.722;2022-08-04T15:33:46;7.97;;;3.00;;
64795;SDS011;51229;51.980;6.722;2022-08-04T15:36:55;7.30;;;2.97;;
64795;SDS011;51229;51.980;6.722;2022-08-04T15:39:23;6.30;;;2.78;;
64795;SDS011;51229;51.980;6.722;2022-08-04T15:41:59;5.43;;;2.72;;
64795;SDS011;51229;51.980;6.722;2022-08-04T15:47:27;6.65;;;2.92;;
64795;SDS011;51229;51.980;6.722;2022-08-04T15:50:09;5.57;;;2.80;;
64795;SDS011;51229;51.980;6.722;2022-08-04T15:55:30;6.82;;;3.22;;
64795;SDS011;51229;51.980;6.722;2022-08-04T16:01:12;6.57;;;2.90;;
64795;SDS011;51229;51.980;6.722;2022-08-04T16:18:54;11.40;;;3.40;;
64795;SDS011;51229;51.980;6.722;2022-08-04T16:21:27;7.35;;;3.40;;
64795;SDS011;51229;51.980;6.722;2022-08-04T16:26:47;7.75;;;3.90;;
64795;SDS011;51229;51.980;6.722;2022-08-04T16:29:23;5.70;;;3.75;;
64795;SDS011;51229;51.980;6.722;2022-08-04T16:34:37;6.53;;;3.58;;
64795;SDS011;51229;51.980;6.722;2022-08-04T16:37:26;5.47;;;3.38;;
64795;SDS011;51229;51.980;6.722;2022-08-04T16:40:22;7.22;;;3.38;;
64795;SDS011;51229;51.980;6.722;2022-08-04T16:43:02;8.65;;;3.17;;
64795;SDS011;51229;51.980;6.722;2022-08-04T16:45:38;6.15;;;3.33;;
64795;SDS011;51229;51.980;6.722;2022-08-04T16:48:07;6.13;;;3.17;;
64795;SDS011;51229;51.980;6.722;2022-08-04T16:50:43;5.53;;;3.08;;
64795;SDS011;51229;51.980;6.722;2022-08-04T16:53:35;7.32;;;3.17;;
64795;SDS011;51229;51.980;6.722;2022-08-04T16:56:03;6.63;;;3.25;;
64795;SDS011;51229;51.980;6.722;2022-08-04T16:58:31;5.57;;;2.97;;
64795;SDS011;51229;51.980;6.722;2022-08-04T17:01:04;6.57;;;3.10;;
64795;SDS011;51229;51.980;6.722;2022-08-04T17:03:35;6.88;;;2.60;;
64795;SDS011;51229;51.980;6.722;2022-08-04T17:06:11;5.15;;;3.08;;
64795;SDS011;51229;51.980;6.722;2022-08-04T17:08:39;9.57;;;3.00;;
64795;SDS011;51229;51.980;6.722;2022-08-04T17:11:05;7.80;;;3.00;;
64795;SDS011;51229;51.980;6.722;2022-08-04T17:13:37;5.47;;;2.50;;
64795;SDS011;51229;51.980;6.722;2022-08-04T17:16:08;5.13;;;3.03;;
64795;SDS011;51229;51.980;6.722;2022-08-04T17:18:39;6.03;;;2.38;;
64795;SDS011;51229;51.980;6.722;2022-08-04T17:21:17;7.68;;;2.83;;
64795;SDS011;51229;51.980;6.722;2022-08-04T17:23:46;7.50;;;2.85;;
64795;SDS011;51229;51.980;6.722;2022-08-04T17:26:19;5.80;;;2.55;;
64795;SDS011;51229;51.980;6.722;2022-08-04T17:28:54;4.63;;;2.30;;
64795;SDS011;51229;51.980;6.722;2022-08-04T17:31:21;5.90;;;2.50;;
64795;SDS011;51229;51.980;6.722;2022-08-04T17:33:52;5.28;;;2.35;;
64795;SDS011;51229;51.980;6.722;2022-08-04T17:36:23;5.28;;;2.35;;
64795;SDS011;51229;51.980;6.722;2022-08-04T17:38:52;5.32;;;2.40;;
64795;SDS011;51229;51.980;6.722;2022-08-04T17:41:23;4.35;;;2.63;;
64795;SDS011;51229;51.980;6.722;2022-08-04T17:43:57;5.53;;;2.40;;
64795;SDS011;51229;51.980;6.722;2022-08-04T17:46:34;4.82;;;2.40;;
64795;SDS011;51229;51.980;6.722;2022-08-04T17:49:07;5.00;;;2.50;;
64795;SDS011;51229;51.980;6.722;2022-08-04T17:51:53;3.83;;;2.05;;
64795;SDS011;51229;51.980;6.722;2022-08-04T17:56:51;5.40;;;2.28;;
64795;SDS011;51229;51.980;6.722;2022-08-04T17:59:25;4.40;;;2.10;;
64795;SDS011;51229;51.980;6.722;2022-08-04T18:02:05;3.95;;;2.15;;
64795;SDS011;51229;51.980;6.722;2022-08-04T18:07:13;4.45;;;2.28;;
64795;SDS011;51229;51.980;6.722;2022-08-04T18:12:24;5.95;;;2.35;;
64795;SDS011;51229;51.980;6.722;2022-08-04T18:14:57;4.63;;;2.38;;
64795;SDS011;51229;51.980;6.722;2022-08-04T18:20:04;5.20;;;2.22;;
64795;SDS011;51229;51.980;6.722;2022-08-04T18:22:35;4.63;;;2.13;;
64795;SDS011;51229;51.980;6.722;2022-08-04T18:25:01;6.07;;;2.20;;
64795;SDS011;51229;51.980;6.722;2022-08-04T18:27:27;4.38;;;2.17;;
64795;SDS011;51229;51.980;6.722;2022-08-04T18:29:54;4.40;;;2.05;;
64795;SDS011;51229;51.980;6.722;2022-08-04T18:32:21;2.67;;;1.70;;
64795;SDS011;51229;51.980;6.722;2022-08-04T18:34:48;4.40;;;2.00;;
64795;SDS011;51229;51.980;6.722;2022-08-04T18:37:17;4.57;;;1.92;;
64795;SDS011;51229;51.980;6.722;2022-08-04T18:39:43;6.70;;;2.00;;
64795;SDS011;51229;51.980;6.722;2022-08-04T18:42:09;5.65;;;1.95;;
64795;SDS011;51229;51.980;6.722;2022-08-04T18:44:35;4.93;;;2.10;;
64795;SDS011;51229;51.980;6.722;2022-08-04T18:47:00;7.68;;;1.88;;
64795;SDS011;51229;51.980;6.722;2022-08-04T18:49:26;3.90;;;1.98;;
64795;SDS011;51229;51.980;6.722;2022-08-04T18:51:53;3.97;;;1.80;;
64795;SDS011;51229;51.980;6.722;2022-08-04T18:54:23;5.57;;;1.98;;
64795;SDS011;51229;51.980;6.722;2022-08-04T18:56:50;3.88;;;1.80;;
64795;SDS011;51229;51.980;6.722;2022-08-04T18:59:17;4.90;;;1.95;;
64795;SDS011;51229;51.980;6.722;2022-08-04T19:01:43;3.55;;;1.67;;
64795;SDS011;51229;51.980;6.722;2022-08-04T19:04:09;4.25;;;1.77;;
64795;SDS011;51229;51.980;6.722;2022-08-04T19:06:38;6.90;;;2.28;;
64795;SDS011;51229;51.980;6.722;2022-08-04T19:09:05;4.68;;;1.65;;
64795;SDS011;51229;51.980;6.722;2022-08-04T19:11:34;6.53;;;2.17;;
64795;SDS011;51229;51.980;6.722;2022-08-04T19:14:00;4.20;;;1.70;;
64795;SDS011;51229;51.980;6.722;2022-08-04T19:16:27;4.65;;;1.70;;
64795;SDS011;51229;51.980;6.722;2022-08-04T19:18:54;4.80;;;1.70;;
64795;SDS011;51229;51.980;6.722;2022-08-04T19:21:20;5.78;;;3.83;;
64795;SDS011;51229;51.980;6.722;2022-08-04T19:23:46;3.75;;;2.05;;
64795;SDS011;51229;51.980;6.722;2022-08-04T19:26:12;3.53;;;1.90;;
64795;SDS011;51229;51.980;6.722;2022-08-04T19:28:38;5.80;;;2.00;;
64795;SDS011;51229;51.980;6.722;2022-08-04T19:31:04;4.32;;;1.75;;
64795;SDS011;51229;51.980;6.722;2022-08-04T19:33:32;6.00;;;2.15;;
64795;SDS011;51229;51.980;6.722;2022-08-04T19:36:02;5.53;;;1.98;;
64795;SDS011;51229;51.980;6.722;2022-08-04T19:38:31;4.30;;;1.83;;
64795;SDS011;51229;51.980;6.722;2022-08-04T19:40:58;5.15;;;1.90;;